createdAt,value
2022-12-02T00:01:00.715Z,94.47
2022-12-02T00:05:11.896Z,94.56
2022-12-02T00:09:36.176Z,94.43
2022-12-02T00:13:43.515Z,94.54
2022-12-02T00:17:45.224Z,94.79
2022-12-02T00:21:48.079Z,95.01
2022-12-02T00:25:54.580Z,94.79
2022-12-02T00:29:56.266Z,94.87
2022-12-02T00:33:59.261Z,95.05
2022-12-02T00:38:01.188Z,94.79
2022-12-02T00:42:02.842Z,95.01
2022-12-02T00:46:23.187Z,94.98
2022-12-02T00:50:25.337Z,94.82
2022-12-02T00:54:27.581Z,94.69
2022-12-02T00:58:29.235Z,94.93
2022-12-02T01:02:31.217Z,94.68
2022-12-02T01:06:33.002Z,94.51
2022-12-02T01:10:34.751Z,94.68
2022-12-02T01:14:36.438Z,94.49
2022-12-02T01:18:39.025Z,94.56
2022-12-02T01:22:40.768Z,94.62
2022-12-02T01:26:42.533Z,95.01
2022-12-02T01:30:44.616Z,94.57
2022-12-02T01:34:46.496Z,94.76
2022-12-02T01:38:48.216Z,94.76
2022-12-02T01:42:50.327Z,94.92
2022-12-02T01:46:52.467Z,94.89
2022-12-02T01:50:54.229Z,94.58
2022-12-02T01:54:56.421Z,95.21
2022-12-02T01:58:58.221Z,94.65
2022-12-02T02:02:59.999Z,94.66
2022-12-02T02:07:03.973Z,95.14
2022-12-02T02:11:05.907Z,94.81
2022-12-02T02:15:10.502Z,94.63
2022-12-02T02:19:15.428Z,94.69
2022-12-02T02:23:19.961Z,94.94
2022-12-02T02:27:21.922Z,94.97
2022-12-02T02:31:23.912Z,94.64
2022-12-02T02:35:25.993Z,94.95
2022-12-02T02:39:28.080Z,94.61
2022-12-02T02:43:31.636Z,94.24
2022-12-02T02:47:34.232Z,94.52
2022-12-02T02:51:36.488Z,94.26
2022-12-02T02:55:38.418Z,93.83
2022-12-02T02:59:42.449Z,94.13
2022-12-02T03:03:55.073Z,93.70
2022-12-02T03:07:57.105Z,94.23
2022-12-02T03:11:59.412Z,93.76
2022-12-02T03:16:03.615Z,94.02
2022-12-02T03:20:06.637Z,94.18
2022-12-02T03:24:08.872Z,93.95
2022-12-02T03:28:12.169Z,93.71
2022-12-02T03:32:14.395Z,94.12
2022-12-02T03:36:16.510Z,94.06
2022-12-02T03:40:18.193Z,93.93
2022-12-02T03:44:19.950Z,93.89
2022-12-02T03:48:22.852Z,93.80
2022-12-02T03:52:24.960Z,93.56
2022-12-02T03:56:26.818Z,93.46
2022-12-02T04:00:28.570Z,93.73
2022-12-02T04:04:30.288Z,93.46
2022-12-02T04:08:32.162Z,93.45
2022-12-02T04:12:33.930Z,93.73
2022-12-02T04:16:35.538Z,93.66
2022-12-02T04:20:37.226Z,93.35
2022-12-02T04:24:39.009Z,93.60
2022-12-02T04:28:40.768Z,93.56
2022-12-02T04:32:42.440Z,93.57
2022-12-02T04:36:44.089Z,93.54
2022-12-02T04:40:45.834Z,93.20
2022-12-02T04:44:47.547Z,93.50
2022-12-02T04:48:49.254Z,92.91
2022-12-02T04:52:50.941Z,92.81
2022-12-02T04:56:52.597Z,92.97
2022-12-02T05:00:55.314Z,92.73
2022-12-02T05:04:57.310Z,93.08
2022-12-02T05:08:59.311Z,92.76
2022-12-02T05:13:00.963Z,92.62
2022-12-02T05:17:02.620Z,92.64
2022-12-02T05:21:04.504Z,92.69
2022-12-02T05:25:06.868Z,92.75
2022-12-02T05:29:08.867Z,92.78
2022-12-02T05:33:10.626Z,93.05
2022-12-02T05:37:12.319Z,92.83
2022-12-02T05:41:14.128Z,93.24
2022-12-02T05:45:20.349Z,92.99
2022-12-02T05:49:24.405Z,92.81
2022-12-02T05:53:28.486Z,92.76
2022-12-02T05:57:31.517Z,92.49
2022-12-02T06:01:38.318Z,92.82
2022-12-02T06:05:43.310Z,92.71
2022-12-02T06:09:45.500Z,92.50
2022-12-02T06:13:47.220Z,92.47
2022-12-02T06:17:49.148Z,92.90
2022-12-02T06:21:52.157Z,92.82
2022-12-02T06:25:55.214Z,93.05
2022-12-02T06:30:01.890Z,92.86
2022-12-02T06:34:24.930Z,92.73
2022-12-02T06:38:32.593Z,92.19
2022-12-02T06:42:38.339Z,92.23
2022-12-02T06:46:40.139Z,92.29
2022-12-02T06:50:43.968Z,92.08
2022-12-02T06:54:46.270Z,92.27
2022-12-02T06:58:55.404Z,92.41
2022-12-02T07:02:57.202Z,92.15
2022-12-02T07:07:10.577Z,91.86
2022-12-02T07:11:49.040Z,92.21
2022-12-02T07:15:50.799Z,92.03
2022-12-02T07:20:00.512Z,91.66
2022-12-02T07:24:02.230Z,91.80
2022-12-02T07:28:30.959Z,91.26
2022-12-02T07:32:32.629Z,91.22
2022-12-02T07:36:34.329Z,90.78
2022-12-02T07:40:35.982Z,90.84
2022-12-02T07:44:38.263Z,90.54
2022-12-02T07:48:39.955Z,90.80
2022-12-02T07:52:41.680Z,90.90
2022-12-02T07:56:43.379Z,90.65
2022-12-02T08:00:45.026Z,90.33
2022-12-02T08:04:47.870Z,89.87
2022-12-02T08:08:49.595Z,89.81
2022-12-02T08:12:51.344Z,89.89
2022-12-02T08:16:53.153Z,89.71
2022-12-02T08:20:54.834Z,89.62
2022-12-02T08:24:56.486Z,89.47
2022-12-02T08:28:58.388Z,89.53
2022-12-02T08:33:00.119Z,89.38
2022-12-02T08:37:01.897Z,89.05
2022-12-02T08:41:03.626Z,89.15
2022-12-02T08:45:05.777Z,89.23
2022-12-02T08:49:07.985Z,88.78
2022-12-02T08:53:09.906Z,89.04
2022-12-02T08:57:11.926Z,88.93
2022-12-02T09:01:13.716Z,89.02
2022-12-02T09:05:16.219Z,88.55
2022-12-02T09:09:17.972Z,88.98
2022-12-02T09:13:19.776Z,88.59
2022-12-02T09:17:21.624Z,88.99
2022-12-02T09:21:23.591Z,88.80
2022-12-02T09:25:25.263Z,88.90
2022-12-02T09:29:27.001Z,88.47
2022-12-02T09:33:33.678Z,88.80
2022-12-02T09:37:35.916Z,89.08
2022-12-02T09:41:38.623Z,88.73
2022-12-02T09:45:42.281Z,88.58
2022-12-02T09:49:46.015Z,88.43
2022-12-02T09:53:47.925Z,88.37
2022-12-02T09:57:49.718Z,88.66
2022-12-02T10:01:51.441Z,88.44
2022-12-02T10:05:53.573Z,88.16
2022-12-02T10:09:55.301Z,88.18
2022-12-02T10:13:57.235Z,88.19
2022-12-02T10:18:08.560Z,88.32
2022-12-02T10:22:19.105Z,88.24
2022-12-02T10:26:24.144Z,88.43
2022-12-02T10:30:27.257Z,88.28
2022-12-02T10:34:30.944Z,88.21
2022-12-02T10:38:38.549Z,88.29
2022-12-02T10:42:40.548Z,88.32
2022-12-02T10:46:43.103Z,88.07
2022-12-02T10:50:45.437Z,88.39
2022-12-02T10:54:50.261Z,87.76
2022-12-02T10:58:55.621Z,87.88
2022-12-02T11:02:59.543Z,87.94
2022-12-02T11:07:01.286Z,87.70
2022-12-02T11:11:09.256Z,87.67
2022-12-02T11:15:44.983Z,87.62
2022-12-02T11:19:47.160Z,87.19
2022-12-02T11:24:23.722Z,86.94
2022-12-02T11:28:28.181Z,87.25
2022-12-02T11:32:29.959Z,86.99
2022-12-02T11:36:33.557Z,86.72
2022-12-02T11:40:35.221Z,87.18
2022-12-02T11:44:36.948Z,86.84
2022-12-02T11:48:55.906Z,86.98
2022-12-02T11:52:59.715Z,86.63
2022-12-02T11:57:01.497Z,86.60
2022-12-02T12:01:15.260Z,86.88
2022-12-02T12:05:16.987Z,86.43
2022-12-02T12:09:18.887Z,86.14
2022-12-02T12:13:24.132Z,86.47
2022-12-02T12:17:45.912Z,86.45
2022-12-02T12:21:50.388Z,86.33
2022-12-02T12:25:52.622Z,86.29
2022-12-02T12:29:55.948Z,86.46
2022-12-02T12:33:57.906Z,85.96
2022-12-02T12:37:59.584Z,86.36
2022-12-02T12:42:02.223Z,86.29
2022-12-02T12:46:04.461Z,86.28
2022-12-02T12:50:06.676Z,86.44
2022-12-02T12:54:08.469Z,86.21
2022-12-02T12:58:10.222Z,86.18
2022-12-02T13:02:12.177Z,86.48
2022-12-02T13:06:14.054Z,86.45
2022-12-02T13:10:16.045Z,86.34
2022-12-02T13:14:17.747Z,86.37
2022-12-02T13:18:19.505Z,86.51
2022-12-02T13:22:21.153Z,86.68
2022-12-02T13:26:22.986Z,86.28
2022-12-02T13:30:24.811Z,86.44
2022-12-02T13:34:26.504Z,86.56
2022-12-02T13:38:28.209Z,86.68
2022-12-02T13:42:29.903Z,86.77
2022-12-02T13:46:32.449Z,86.76
2022-12-02T13:50:34.335Z,86.41
2022-12-02T13:54:36.116Z,86.67
2022-12-02T13:58:37.817Z,86.52
2022-12-02T14:02:39.817Z,86.44
2022-12-02T14:06:41.792Z,86.63
2022-12-02T14:10:43.439Z,87.03
2022-12-02T14:14:45.119Z,86.84
2022-12-02T14:18:50.155Z,87.54
2022-12-02T14:22:55.727Z,87.73
2022-12-02T14:26:57.424Z,87.97
2022-12-02T14:30:59.410Z,87.82
2022-12-02T14:35:01.231Z,88.44
2022-12-02T14:39:03.091Z,88.68
2022-12-02T14:43:08.531Z,88.79
2022-12-02T14:47:12.973Z,88.76
2022-12-02T14:51:14.680Z,88.79
2022-12-02T14:55:16.427Z,89.06
2022-12-02T14:59:18.111Z,88.68
2022-12-02T15:03:19.987Z,89.00
2022-12-02T15:07:21.804Z,88.81
2022-12-02T15:11:23.628Z,88.64
2022-12-02T15:15:40.838Z,88.78
2022-12-02T15:19:42.796Z,88.93
2022-12-02T15:23:44.513Z,88.50
2022-12-02T15:27:46.634Z,88.36
2022-12-02T15:31:48.373Z,88.67
2022-12-02T15:35:50.128Z,88.78
2022-12-02T15:39:51.918Z,89.03
2022-12-02T15:43:54.317Z,89.02
2022-12-02T15:47:56.143Z,89.02
2022-12-02T15:51:57.881Z,89.13
2022-12-02T15:55:59.608Z,89.04
2022-12-02T16:00:01.468Z,89.00
2022-12-02T16:04:03.309Z,88.87
2022-12-02T16:08:05.277Z,88.53
2022-12-02T16:12:07.813Z,88.84
2022-12-02T16:16:09.901Z,88.61
2022-12-02T16:20:12.777Z,88.54
2022-12-02T16:24:14.498Z,88.92
2022-12-02T16:28:16.804Z,88.39
2022-12-02T16:32:20.640Z,88.85
2022-12-02T16:36:22.689Z,88.89
2022-12-02T16:40:24.410Z,88.63
2022-12-02T16:44:26.116Z,88.46
2022-12-02T16:48:27.836Z,88.81
2022-12-02T16:52:29.581Z,88.69
2022-12-02T16:56:33.291Z,88.74
2022-12-02T17:00:35.063Z,88.55
2022-12-02T17:04:36.938Z,89.03
2022-12-02T17:08:38.661Z,88.77
2022-12-02T17:12:40.367Z,88.56
2022-12-02T17:16:42.142Z,88.67
2022-12-02T17:20:43.945Z,88.59
2022-12-02T17:24:45.713Z,88.79
2022-12-02T17:28:47.408Z,88.72
2022-12-02T17:32:54.906Z,88.35
2022-12-02T17:36:58.310Z,88.27
2022-12-02T17:41:12.061Z,88.59
2022-12-02T17:45:14.227Z,88.07
2022-12-02T17:49:15.959Z,88.04
2022-12-02T17:53:17.638Z,87.75
2022-12-02T17:57:19.288Z,87.56
2022-12-02T18:01:21.065Z,87.10
2022-12-02T18:05:22.848Z,85.76
2022-12-02T18:09:24.505Z,85.90
2022-12-02T18:13:26.220Z,85.63
2022-12-02T18:17:27.867Z,85.39
2022-12-02T18:21:29.572Z,85.19
2022-12-02T18:25:31.305Z,84.82
2022-12-02T18:29:33.051Z,84.61
2022-12-02T18:33:34.720Z,84.77
2022-12-02T18:37:36.422Z,84.99
2022-12-02T18:41:38.070Z,84.71
2022-12-02T18:45:39.803Z,85.10
2022-12-02T18:49:42.926Z,85.14
2022-12-02T18:53:44.739Z,84.85
2022-12-02T18:57:46.516Z,84.85
2022-12-02T19:01:48.271Z,84.88
2022-12-02T19:05:50.033Z,85.08
2022-12-02T19:09:53.923Z,85.39
2022-12-02T19:13:55.994Z,85.46
2022-12-02T19:17:57.713Z,85.30
2022-12-02T19:21:59.465Z,85.60
2022-12-02T19:26:01.166Z,85.66
2022-12-02T19:30:02.996Z,85.50
2022-12-02T19:34:04.684Z,85.60
2022-12-02T19:38:10.364Z,86.12
2022-12-02T19:42:16.544Z,85.69
2022-12-02T19:46:18.297Z,85.98
2022-12-02T19:50:20.062Z,85.87
2022-12-02T19:54:21.789Z,85.81
2022-12-02T19:58:23.536Z,85.95
2022-12-02T20:02:25.402Z,85.32
2022-12-02T20:06:27.126Z,85.16
2022-12-02T20:10:28.821Z,84.55
2022-12-02T20:14:30.622Z,84.86
2022-12-02T20:18:32.367Z,84.52
2022-12-02T20:22:34.059Z,84.83
2022-12-02T20:26:35.813Z,85.08
2022-12-02T20:30:37.605Z,85.04
2022-12-02T20:34:41.088Z,84.72
2022-12-02T20:38:43.016Z,84.66
2022-12-02T20:42:44.770Z,84.89
2022-12-02T20:46:46.484Z,84.66
2022-12-02T20:50:48.249Z,85.00
2022-12-02T20:54:50.270Z,84.57
2022-12-02T20:58:52.051Z,84.49
2022-12-02T21:02:53.761Z,84.26
2022-12-02T21:06:55.428Z,83.87
2022-12-02T21:10:57.132Z,83.10
2022-12-02T21:14:58.853Z,83.38
2022-12-02T21:19:00.612Z,83.08
2022-12-02T21:23:05.004Z,83.10
2022-12-02T21:27:06.866Z,83.41
2022-12-02T21:31:08.550Z,83.60
2022-12-02T21:35:10.830Z,83.53
2022-12-02T21:39:12.559Z,83.43
2022-12-02T21:43:16.459Z,83.66
2022-12-02T21:47:18.432Z,83.83
2022-12-02T21:51:20.153Z,83.94
2022-12-02T21:55:21.886Z,84.48
2022-12-02T21:59:23.622Z,84.09
2022-12-02T22:03:25.347Z,84.11
2022-12-02T22:07:43.156Z,84.61
2022-12-02T22:11:46.607Z,84.65
2022-12-02T22:15:48.445Z,84.48
2022-12-02T22:19:50.165Z,84.29
2022-12-02T22:23:51.935Z,84.20
2022-12-02T22:27:53.669Z,84.24
2022-12-02T22:31:55.534Z,84.10
2022-12-02T22:35:57.346Z,83.90
2022-12-02T22:39:59.254Z,84.08
2022-12-02T22:44:00.924Z,83.97
2022-12-02T22:48:03.139Z,84.13
2022-12-02T22:52:04.927Z,84.48
2022-12-02T22:56:06.897Z,84.35
2022-12-02T23:00:10.739Z,84.36
2022-12-02T23:04:12.509Z,84.37
2022-12-02T23:08:14.333Z,84.59
2022-12-02T23:12:16.343Z,84.54
2022-12-02T23:16:18.133Z,84.35
2022-12-02T23:20:20.025Z,84.49
2022-12-02T23:24:21.690Z,84.28
2022-12-02T23:28:23.444Z,84.14
2022-12-02T23:32:25.164Z,84.04
2022-12-02T23:36:31.951Z,83.79
2022-12-02T23:40:36.515Z,83.85
2022-12-02T23:44:38.204Z,83.78
2022-12-02T23:48:39.910Z,83.95
2022-12-02T23:52:41.574Z,83.42
2022-12-02T23:56:43.291Z,83.76
